sensor_id;sensor_type;location;lat;lon;timestamp;P1;durP1;ratioP1;P2;durP2;ratioP2
11504;SDS011;5809;53.262;10.408;2024-03-22T00:02:13;17.37;;;11.33;;
11504;SDS011;5809;53.262;10.408;2024-03-22T00:04:41;18.93;;;11.37;;
11504;SDS011;5809;53.262;10.408;2024-03-22T00:07:08;16.57;;;10.30;;
11504;SDS011;5809;53.262;10.408;2024-03-22T00:09:34;14.83;;;10.57;;
11504;SDS011;5809;53.262;10.408;2024-03-22T00:12:01;21.20;;;11.90;;
11504;SDS011;5809;53.262;10.408;2024-03-22T00:14:27;17.20;;;10.83;;
11504;SDS011;5809;53.262;10.408;2024-03-22T00:16:54;18.17;;;10.87;;
11504;SDS011;5809;53.262;10.408;2024-03-22T00:19:20;14.87;;;10.27;;
11504;SDS011;5809;53.262;10.408;2024-03-22T00:21:48;16.07;;;10.77;;
11504;SDS011;5809;53.262;10.408;2024-03-22T00:24:14;18.83;;;11.67;;
11504;SDS011;5809;53.262;10.408;2024-03-22T00:26:41;15.00;;;10.50;;
11504;SDS011;5809;53.262;10.408;2024-03-22T00:29:07;16.83;;;11.30;;
11504;SDS011;5809;53.262;10.408;2024-03-22T00:31:34;17.90;;;11.73;;
11504;SDS011;5809;53.262;10.408;2024-03-22T00:34:00;18.00;;;11.43;;
11504;SDS011;5809;53.262;10.408;2024-03-22T00:36:27;16.37;;;11.70;;
11504;SDS011;5809;53.262;10.408;2024-03-22T00:38:54;16.47;;;11.50;;
11504;SDS011;5809;53.262;10.408;2024-03-22T00:41:22;15.87;;;11.87;;
11504;SDS011;5809;53.262;10.408;2024-03-22T00:43:47;16.27;;;11.90;;
11504;SDS011;5809;53.262;10.408;2024-03-22T00:46:14;17.03;;;11.57;;
11504;SDS011;5809;53.262;10.408;2024-03-22T00:48:40;15.33;;;12.67;;
11504;SDS011;5809;53.262;10.408;2024-03-22T00:51:07;16.57;;;11.77;;
11504;SDS011;5809;53.262;10.408;2024-03-22T00:53:33;19.73;;;13.27;;
11504;SDS011;5809;53.262;10.408;2024-03-22T00:56:01;16.07;;;13.07;;
11504;SDS011;5809;53.262;10.408;2024-03-22T00:58:27;16.93;;;12.30;;
11504;SDS011;5809;53.262;10.408;2024-03-22T01:00:54;17.65;;;11.75;;
11504;SDS011;5809;53.262;10.408;2024-03-22T01:03:20;17.23;;;13.67;;
11504;SDS011;5809;53.262;10.408;2024-03-22T01:05:46;20.10;;;13.43;;
11504;SDS011;5809;53.262;10.408;2024-03-22T01:08:13;16.27;;;12.93;;
11504;SDS011;5809;53.262;10.408;2024-03-22T01:10:40;18.47;;;13.10;;
11504;SDS011;5809;53.262;10.408;2024-03-22T01:13:07;17.83;;;13.27;;
11504;SDS011;5809;53.262;10.408;2024-03-22T01:15:34;16.57;;;12.77;;
11504;SDS011;5809;53.262;10.408;2024-03-22T01:18:00;16.67;;;13.23;;
11504;SDS011;5809;53.262;10.408;2024-03-22T01:20:27;17.63;;;14.10;;
11504;SDS011;5809;53.262;10.408;2024-03-22T01:22:53;18.70;;;13.40;;
11504;SDS011;5809;53.262;10.408;2024-03-22T01:25:20;20.93;;;14.10;;
11504;SDS011;5809;53.262;10.408;2024-03-22T01:27:46;19.30;;;13.47;;
11504;SDS011;5809;53.262;10.408;2024-03-22T01:30:14;22.40;;;14.77;;
11504;SDS011;5809;53.262;10.408;2024-03-22T01:32:40;16.47;;;13.87;;
11504;SDS011;5809;53.262;10.408;2024-03-22T01:35:07;18.37;;;13.97;;
11504;SDS011;5809;53.262;10.408;2024-03-22T01:37:33;21.17;;;14.83;;
11504;SDS011;5809;53.262;10.408;2024-03-22T01:40:00;23.43;;;14.73;;
11504;SDS011;5809;53.262;10.408;2024-03-22T01:42:27;21.17;;;14.90;;
11504;SDS011;5809;53.262;10.408;2024-03-22T01:44:54;21.77;;;15.13;;
11504;SDS011;5809;53.262;10.408;2024-03-22T01:47:21;24.03;;;14.70;;
11504;SDS011;5809;53.262;10.408;2024-03-22T01:49:48;22.17;;;14.80;;
11504;SDS011;5809;53.262;10.408;2024-03-22T01:52:16;23.53;;;15.60;;
11504;SDS011;5809;53.262;10.408;2024-03-22T01:54:42;18.67;;;15.20;;
11504;SDS011;5809;53.262;10.408;2024-03-22T01:57:08;20.93;;;16.40;;
11504;SDS011;5809;53.262;10.408;2024-03-22T01:59:35;23.00;;;15.73;;
11504;SDS011;5809;53.262;10.408;2024-03-22T02:02:01;21.60;;;16.00;;
11504;SDS011;5809;53.262;10.408;2024-03-22T02:04:30;18.57;;;15.10;;
11504;SDS011;5809;53.262;10.408;2024-03-22T02:06:56;19.93;;;16.30;;
11504;SDS011;5809;53.262;10.408;2024-03-22T02:09:22;20.07;;;16.47;;
11504;SDS011;5809;53.262;10.408;2024-03-22T02:11:49;22.80;;;16.10;;
11504;SDS011;5809;53.262;10.408;2024-03-22T02:14:15;24.43;;;16.07;;
11504;SDS011;5809;53.262;10.408;2024-03-22T02:16:43;19.30;;;15.70;;
11504;SDS011;5809;53.262;10.408;2024-03-22T02:19:10;19.90;;;15.73;;
11504;SDS011;5809;53.262;10.408;2024-03-22T02:21:38;20.27;;;15.87;;
11504;SDS011;5809;53.262;10.408;2024-03-22T02:24:05;23.87;;;17.00;;
11504;SDS011;5809;53.262;10.408;2024-03-22T02:26:32;23.23;;;16.87;;
11504;SDS011;5809;53.262;10.408;2024-03-22T02:28:58;25.30;;;16.73;;
11504;SDS011;5809;53.262;10.408;2024-03-22T02:31:25;23.13;;;17.37;;
11504;SDS011;5809;53.262;10.408;2024-03-22T02:33:52;22.87;;;17.37;;
11504;SDS011;5809;53.262;10.408;2024-03-22T02:36:18;22.57;;;17.23;;
11504;SDS011;5809;53.262;10.408;2024-03-22T02:38:44;20.63;;;17.50;;
11504;SDS011;5809;53.262;10.408;2024-03-22T02:41:12;24.97;;;18.73;;
11504;SDS011;5809;53.262;10.408;2024-03-22T02:43:38;25.53;;;18.63;;
11504;SDS011;5809;53.262;10.408;2024-03-22T02:46:05;25.33;;;17.70;;
11504;SDS011;5809;53.262;10.408;2024-03-22T02:48:31;23.33;;;17.67;;
11504;SDS011;5809;53.262;10.408;2024-03-22T02:50:58;23.73;;;18.70;;
11504;SDS011;5809;53.262;10.408;2024-03-22T02:53:24;25.67;;;17.80;;
11504;SDS011;5809;53.262;10.408;2024-03-22T02:55:51;23.87;;;18.80;;
11504;SDS011;5809;53.262;10.408;2024-03-22T02:58:19;24.93;;;19.37;;
11504;SDS011;5809;53.262;10.408;2024-03-22T03:00:46;27.73;;;19.93;;
11504;SDS011;5809;53.262;10.408;2024-03-22T03:03:12;24.93;;;19.67;;
11504;SDS011;5809;53.262;10.408;2024-03-22T03:05:39;22.87;;;19.57;;
11504;SDS011;5809;53.262;10.408;2024-03-22T03:08:06;25.63;;;19.43;;
11504;SDS011;5809;53.262;10.408;2024-03-22T03:10:33;28.57;;;20.70;;
11504;SDS011;5809;53.262;10.408;2024-03-22T03:12:59;28.07;;;20.63;;
11504;SDS011;5809;53.262;10.408;2024-03-22T03:15:28;27.53;;;20.03;;
11504;SDS011;5809;53.262;10.408;2024-03-22T03:17:54;25.50;;;19.40;;
11504;SDS011;5809;53.262;10.408;2024-03-22T03:20:21;26.67;;;21.70;;
11504;SDS011;5809;53.262;10.408;2024-03-22T03:22:47;26.63;;;21.33;;
11504;SDS011;5809;53.262;10.408;2024-03-22T03:25:14;29.10;;;21.47;;
11504;SDS011;5809;53.262;10.408;2024-03-22T03:27:40;27.27;;;21.03;;
11504;SDS011;5809;53.262;10.408;2024-03-22T03:30:07;29.33;;;21.48;;
11504;SDS011;5809;53.262;10.408;2024-03-22T03:32:35;29.90;;;21.37;;
11504;SDS011;5809;53.262;10.408;2024-03-22T03:35:01;26.27;;;21.13;;
11504;SDS011;5809;53.262;10.408;2024-03-22T03:37:27;28.67;;;22.10;;
11504;SDS011;5809;53.262;10.408;2024-03-22T03:39:54;27.70;;;21.23;;
11504;SDS011;5809;53.262;10.408;2024-03-22T03:42:20;29.60;;;21.43;;
11504;SDS011;5809;53.262;10.408;2024-03-22T03:44:47;30.73;;;21.67;;
11504;SDS011;5809;53.262;10.408;2024-03-22T03:47:13;29.60;;;22.40;;
11504;SDS011;5809;53.262;10.408;2024-03-22T03:49:41;30.73;;;22.73;;
11504;SDS011;5809;53.262;10.408;2024-03-22T03:52:07;31.87;;;23.37;;
11504;SDS011;5809;53.262;10.408;2024-03-22T03:54:34;31.23;;;23.27;;
11504;SDS011;5809;53.262;10.408;2024-03-22T03:56:59;28.60;;;23.83;;
11504;SDS011;5809;53.262;10.408;2024-03-22T03:59:27;30.70;;;23.77;;
11504;SDS011;5809;53.262;10.408;2024-03-22T04:01:52;30.17;;;22.87;;
11504;SDS011;5809;53.262;10.408;2024-03-22T04:04:19;33.17;;;23.80;;
11504;SDS011;5809;53.262;10.408;2024-03-22T04:06:47;31.60;;;25.07;;
11504;SDS011;5809;53.262;10.408;2024-03-22T04:09:13;33.60;;;23.90;;
11504;SDS011;5809;53.262;10.408;2024-03-22T04:11:39;33.03;;;25.25;;
11504;SDS011;5809;53.262;10.408;2024-03-22T04:14:06;31.83;;;24.88;;
11504;SDS011;5809;53.262;10.408;2024-03-22T04:16:32;34.00;;;24.33;;
11504;SDS011;5809;53.262;10.408;2024-03-22T04:18:59;36.73;;;24.90;;
11504;SDS011;5809;53.262;10.408;2024-03-22T04:21:25;32.00;;;24.40;;
11504;SDS011;5809;53.262;10.408;2024-03-22T04:23:53;28.77;;;22.77;;
11504;SDS011;5809;53.262;10.408;2024-03-22T04:26:19;33.80;;;25.60;;
11504;SDS011;5809;53.262;10.408;2024-03-22T04:28:48;32.42;;;25.42;;
11504;SDS011;5809;53.262;10.408;2024-03-22T04:31:14;32.13;;;25.55;;
11504;SDS011;5809;53.262;10.408;2024-03-22T04:33:40;36.47;;;26.50;;
11504;SDS011;5809;53.262;10.408;2024-03-22T04:36:06;34.30;;;24.40;;
11504;SDS011;5809;53.262;10.408;2024-03-22T04:38:34;33.10;;;25.08;;
11504;SDS011;5809;53.262;10.408;2024-03-22T04:41:03;33.58;;;25.77;;
11504;SDS011;5809;53.262;10.408;2024-03-22T04:43:30;33.67;;;25.37;;
11504;SDS011;5809;53.262;10.408;2024-03-22T04:45:56;38.47;;;27.33;;
11504;SDS011;5809;53.262;10.408;2024-03-22T04:48:23;34.17;;;26.80;;
11504;SDS011;5809;53.262;10.408;2024-03-22T04:50:49;35.70;;;26.43;;
11504;SDS011;5809;53.262;10.408;2024-03-22T04:53:17;35.33;;;26.30;;
11504;SDS011;5809;53.262;10.408;2024-03-22T04:55:44;34.15;;;25.23;;
11504;SDS011;5809;53.262;10.408;2024-03-22T04:58:13;35.90;;;27.45;;
11504;SDS011;5809;53.262;10.408;2024-03-22T05:00:39;36.80;;;26.10;;
11504;SDS011;5809;53.262;10.408;2024-03-22T05:03:06;37.25;;;26.23;;
11504;SDS011;5809;53.262;10.408;2024-03-22T05:05:33;38.72;;;27.92;;
11504;SDS011;5809;53.262;10.408;2024-03-22T05:08:00;38.25;;;27.35;;
11504;SDS011;5809;53.262;10.408;2024-03-22T05:10:26;37.55;;;26.75;;
11504;SDS011;5809;53.262;10.408;2024-03-22T05:12:53;38.97;;;26.73;;
11504;SDS011;5809;53.262;10.408;2024-03-22T05:15:21;34.63;;;27.25;;
11504;SDS011;5809;53.262;10.408;2024-03-22T05:17:48;38.10;;;27.63;;
11504;SDS011;5809;53.262;10.408;2024-03-22T05:20:14;43.28;;;28.17;;
11504;SDS011;5809;53.262;10.408;2024-03-22T05:22:41;37.10;;;27.10;;
11504;SDS011;5809;53.262;10.408;2024-03-22T05:25:07;37.33;;;28.83;;
11504;SDS011;5809;53.262;10.408;2024-03-22T05:27:34;38.33;;;28.05;;
11504;SDS011;5809;53.262;10.408;2024-03-22T05:30:01;38.72;;;27.98;;
11504;SDS011;5809;53.262;10.408;2024-03-22T05:32:31;37.08;;;28.05;;
11504;SDS011;5809;53.262;10.408;2024-03-22T05:34:57;39.38;;;28.67;;
11504;SDS011;5809;53.262;10.408;2024-03-22T05:37:23;38.97;;;29.42;;
11504;SDS011;5809;53.262;10.408;2024-03-22T05:39:49;41.08;;;29.77;;
11504;SDS011;5809;53.262;10.408;2024-03-22T05:42:16;38.85;;;27.63;;
11504;SDS011;5809;53.262;10.408;2024-03-22T05:44:42;40.45;;;30.75;;
11504;SDS011;5809;53.262;10.408;2024-03-22T05:47:10;41.67;;;31.57;;
11504;SDS011;5809;53.262;10.408;2024-03-22T05:49:37;43.13;;;30.60;;
11504;SDS011;5809;53.262;10.408;2024-03-22T05:52:04;42.95;;;30.48;;
11504;SDS011;5809;53.262;10.408;2024-03-22T05:54:30;40.30;;;31.25;;
11504;SDS011;5809;53.262;10.408;2024-03-22T05:56:57;45.38;;;30.85;;
11504;SDS011;5809;53.262;10.408;2024-03-22T05:59:23;44.35;;;32.10;;
11504;SDS011;5809;53.262;10.408;2024-03-22T06:01:50;44.38;;;32.28;;
11504;SDS011;5809;53.262;10.408;2024-03-22T06:04:16;42.15;;;30.65;;
11504;SDS011;5809;53.262;10.408;2024-03-22T06:06:44;46.22;;;33.08;;
11504;SDS011;5809;53.262;10.408;2024-03-22T06:09:09;47.42;;;32.78;;
11504;SDS011;5809;53.262;10.408;2024-03-22T06:11:38;49.70;;;34.38;;
11504;SDS011;5809;53.262;10.408;2024-03-22T06:14:04;46.50;;;33.67;;
11504;SDS011;5809;53.262;10.408;2024-03-22T06:16:31;44.22;;;32.80;;
11504;SDS011;5809;53.262;10.408;2024-03-22T06:18:57;47.70;;;33.47;;
11504;SDS011;5809;53.262;10.408;2024-03-22T06:21:24;47.25;;;34.30;;
11504;SDS011;5809;53.262;10.408;2024-03-22T06:23:52;47.83;;;34.20;;
11504;SDS011;5809;53.262;10.408;2024-03-22T06:26:18;48.50;;;34.50;;
11504;SDS011;5809;53.262;10.408;2024-03-22T06:28:44;45.95;;;34.78;;
11504;SDS011;5809;53.262;10.408;2024-03-22T06:31:11;52.85;;;33.90;;
11504;SDS011;5809;53.262;10.408;2024-03-22T06:33:37;47.20;;;34.17;;
11504;SDS011;5809;53.262;10.408;2024-03-22T06:36:04;46.45;;;34.40;;
11504;SDS011;5809;53.262;10.408;2024-03-22T06:38:30;48.58;;;34.33;;
11504;SDS011;5809;53.262;10.408;2024-03-22T06:40:59;51.05;;;35.30;;
11504;SDS011;5809;53.262;10.408;2024-03-22T06:43:25;49.38;;;36.03;;
11504;SDS011;5809;53.262;10.408;2024-03-22T06:45:52;49.50;;;36.58;;
11504;SDS011;5809;53.262;10.408;2024-03-22T06:48:17;49.65;;;35.90;;
11504;SDS011;5809;53.262;10.408;2024-03-22T06:50:45;47.45;;;34.45;;
11504;SDS011;5809;53.262;10.408;2024-03-22T06:53:11;50.95;;;35.42;;
11504;SDS011;5809;53.262;10.408;2024-03-22T06:55:38;48.80;;;36.60;;
11504;SDS011;5809;53.262;10.408;2024-03-22T06:58:05;49.28;;;36.25;;
11504;SDS011;5809;53.262;10.408;2024-03-22T07:00:32;50.85;;;37.58;;
11504;SDS011;5809;53.262;10.408;2024-03-22T07:02:59;49.70;;;35.10;;
11504;SDS011;5809;53.262;10.408;2024-03-22T07:05:27;52.67;;;35.45;;
11504;SDS011;5809;53.262;10.408;2024-03-22T07:07:53;52.97;;;37.30;;
11504;SDS011;5809;53.262;10.408;2024-03-22T07:10:22;50.08;;;35.97;;
11504;SDS011;5809;53.262;10.408;2024-03-22T07:12:52;48.58;;;34.92;;
11504;SDS011;5809;53.262;10.408;2024-03-22T07:15:20;50.75;;;35.47;;
11504;SDS011;5809;53.262;10.408;2024-03-22T07:17:47;51.60;;;36.20;;
11504;SDS011;5809;53.262;10.408;2024-03-22T07:20:14;54.70;;;37.30;;
11504;SDS011;5809;53.262;10.408;2024-03-22T07:22:39;51.10;;;36.92;;
11504;SDS011;5809;53.262;10.408;2024-03-22T07:25:07;49.67;;;35.60;;
11504;SDS011;5809;53.262;10.408;2024-03-22T07:27:34;50.88;;;35.97;;
11504;SDS011;5809;53.262;10.408;2024-03-22T07:30:01;55.20;;;37.35;;
11504;SDS011;5809;53.262;10.408;2024-03-22T07:32:29;53.28;;;36.00;;
11504;SDS011;5809;53.262;10.408;2024-03-22T07:34:55;54.65;;;36.72;;
11504;SDS011;5809;53.262;10.408;2024-03-22T07:37:21;50.33;;;36.88;;
11504;SDS011;5809;53.262;10.408;2024-03-22T07:39:48;51.47;;;37.05;;
11504;SDS011;5809;53.262;10.408;2024-03-22T07:42:14;51.55;;;36.72;;
11504;SDS011;5809;53.262;10.408;2024-03-22T07:44:41;52.60;;;37.65;;
11504;SDS011;5809;53.262;10.408;2024-03-22T07:47:08;51.45;;;37.00;;
11504;SDS011;5809;53.262;10.408;2024-03-22T07:49:37;55.95;;;37.05;;
11504;SDS011;5809;53.262;10.408;2024-03-22T07:52:03;55.20;;;38.08;;
11504;SDS011;5809;53.262;10.408;2024-03-22T07:54:30;53.78;;;38.08;;
11504;SDS011;5809;53.262;10.408;2024-03-22T07:56:56;59.45;;;40.08;;
11504;SDS011;5809;53.262;10.408;2024-03-22T07:59:23;57.65;;;40.15;;
11504;SDS011;5809;53.262;10.408;2024-03-22T08:01:50;58.83;;;40.30;;
11504;SDS011;5809;53.262;10.408;2024-03-22T08:04:17;59.90;;;39.75;;
11504;SDS011;5809;53.262;10.408;2024-03-22T08:06:44;61.33;;;41.00;;
11504;SDS011;5809;53.262;10.408;2024-03-22T08:09:11;63.50;;;40.33;;
11504;SDS011;5809;53.262;10.408;2024-03-22T08:11:37;63.65;;;42.22;;
11504;SDS011;5809;53.262;10.408;2024-03-22T08:14:05;66.03;;;42.20;;
11504;SDS011;5809;53.262;10.408;2024-03-22T08:16:31;63.58;;;42.60;;
11504;SDS011;5809;53.262;10.408;2024-03-22T08:18:58;61.85;;;40.53;;
11504;SDS011;5809;53.262;10.408;2024-03-22T08:21:24;61.70;;;41.67;;
11504;SDS011;5809;53.262;10.408;2024-03-22T08:23:52;65.57;;;41.50;;
11504;SDS011;5809;53.262;10.408;2024-03-22T08:26:18;62.67;;;40.50;;
11504;SDS011;5809;53.262;10.408;2024-03-22T08:28:45;64.00;;;41.00;;
11504;SDS011;5809;53.262;10.408;2024-03-22T08:31:12;65.97;;;42.20;;
11504;SDS011;5809;53.262;10.408;2024-03-22T08:33:39;65.90;;;42.97;;
11504;SDS011;5809;53.262;10.408;2024-03-22T08:36:05;67.80;;;43.83;;
11504;SDS011;5809;53.262;10.408;2024-03-22T08:38:31;76.32;;;46.67;;
11504;SDS011;5809;53.262;10.408;2024-03-22T08:40:59;84.00;;;47.15;;
11504;SDS011;5809;53.262;10.408;2024-03-22T08:43:26;83.57;;;49.05;;
11504;SDS011;5809;53.262;10.408;2024-03-22T08:45:54;83.75;;;49.25;;
11504;SDS011;5809;53.262;10.408;2024-03-22T08:48:22;89.32;;;49.72;;
11504;SDS011;5809;53.262;10.408;2024-03-22T08:50:48;92.28;;;52.03;;
11504;SDS011;5809;53.262;10.408;2024-03-22T08:53:15;87.45;;;50.88;;
11504;SDS011;5809;53.262;10.408;2024-03-22T08:55:45;99.07;;;53.78;;
11504;SDS011;5809;53.262;10.408;2024-03-22T08:58:14;90.55;;;51.15;;
11504;SDS011;5809;53.262;10.408;2024-03-22T09:00:40;100.72;;;52.20;;
11504;SDS011;5809;53.262;10.408;2024-03-22T09:03:07;103.47;;;54.78;;
11504;SDS011;5809;53.262;10.408;2024-03-22T09:05:33;100.22;;;54.38;;
11504;SDS011;5809;53.262;10.408;2024-03-22T09:08:01;99.75;;;53.45;;
11504;SDS011;5809;53.262;10.408;2024-03-22T09:10:28;96.15;;;52.05;;
11504;SDS011;5809;53.262;10.408;2024-03-22T09:12:55;98.05;;;52.88;;
11504;SDS011;5809;53.262;10.408;2024-03-22T09:15:23;99.10;;;51.70;;
11504;SDS011;5809;53.262;10.408;2024-03-22T09:17:51;108.00;;;54.17;;
11504;SDS011;5809;53.262;10.408;2024-03-22T09:20:17;100.60;;;54.90;;
11504;SDS011;5809;53.262;10.408;2024-03-22T09:22:44;98.13;;;51.83;;
11504;SDS011;5809;53.262;10.408;2024-03-22T09:25:09;103.18;;;53.65;;
11504;SDS011;5809;53.262;10.408;2024-03-22T09:27:36;105.85;;;54.30;;
11504;SDS011;5809;53.262;10.408;2024-03-22T09:30:03;100.22;;;52.92;;
11504;SDS011;5809;53.262;10.408;2024-03-22T09:32:32;108.25;;;54.50;;
11504;SDS011;5809;53.262;10.408;2024-03-22T09:34:57;93.85;;;49.90;;
11504;SDS011;5809;53.262;10.408;2024-03-22T09:37:24;92.78;;;48.72;;
11504;SDS011;5809;53.262;10.408;2024-03-22T09:39:50;92.28;;;48.33;;
11504;SDS011;5809;53.262;10.408;2024-03-22T09:42:17;84.82;;;46.42;;
11504;SDS011;5809;53.262;10.408;2024-03-22T09:44:44;93.28;;;49.05;;
11504;SDS011;5809;53.262;10.408;2024-03-22T09:47:14;86.72;;;47.75;;
11504;SDS011;5809;53.262;10.408;2024-03-22T09:49:42;80.20;;;45.80;;
11504;SDS011;5809;53.262;10.408;2024-03-22T09:52:11;82.40;;;45.90;;
11504;SDS011;5809;53.262;10.408;2024-03-22T09:54:38;81.15;;;45.92;;
11504;SDS011;5809;53.262;10.408;2024-03-22T09:57:06;81.10;;;44.50;;
11504;SDS011;5809;53.262;10.408;2024-03-22T09:59:34;82.32;;;45.88;;
11504;SDS011;5809;53.262;10.408;2024-03-22T10:02:01;78.22;;;45.80;;
11504;SDS011;5809;53.262;10.408;2024-03-22T10:04:28;84.88;;;48.13;;
11504;SDS011;5809;53.262;10.408;2024-03-22T10:06:56;93.25;;;48.58;;
11504;SDS011;5809;53.262;10.408;2024-03-22T10:09:27;86.72;;;46.45;;
11504;SDS011;5809;53.262;10.408;2024-03-22T10:11:55;81.78;;;44.50;;
11504;SDS011;5809;53.262;10.408;2024-03-22T10:14:21;80.82;;;45.08;;
11504;SDS011;5809;53.262;10.408;2024-03-22T10:16:50;80.43;;;46.13;;
11504;SDS011;5809;53.262;10.408;2024-03-22T10:19:18;71.75;;;43.13;;
11504;SDS011;5809;53.262;10.408;2024-03-22T10:21:45;73.72;;;42.35;;
11504;SDS011;5809;53.262;10.408;2024-03-22T10:24:12;72.20;;;41.85;;
11504;SDS011;5809;53.262;10.408;2024-03-22T10:26:39;63.83;;;39.17;;
11504;SDS011;5809;53.262;10.408;2024-03-22T10:29:06;66.68;;;39.40;;
11504;SDS011;5809;53.262;10.408;2024-03-22T10:31:34;63.38;;;39.17;;
11504;SDS011;5809;53.262;10.408;2024-03-22T10:34:00;65.93;;;39.78;;
11504;SDS011;5809;53.262;10.408;2024-03-22T10:36:29;67.30;;;38.85;;
11504;SDS011;5809;53.262;10.408;2024-03-22T10:38:56;64.97;;;39.97;;
11504;SDS011;5809;53.262;10.408;2024-03-22T10:41:26;68.03;;;41.00;;
11504;SDS011;5809;53.262;10.408;2024-03-22T10:43:52;78.32;;;42.20;;
11504;SDS011;5809;53.262;10.408;2024-03-22T10:46:19;68.85;;;42.33;;
11504;SDS011;5809;53.262;10.408;2024-03-22T10:48:46;66.13;;;40.15;;
11504;SDS011;5809;53.262;10.408;2024-03-22T10:51:13;68.97;;;42.40;;
11504;SDS011;5809;53.262;10.408;2024-03-22T10:53:40;70.45;;;41.50;;
11504;SDS011;5809;53.262;10.408;2024-03-22T10:56:08;68.82;;;40.95;;
11504;SDS011;5809;53.262;10.408;2024-03-22T10:58:37;69.53;;;41.40;;
11504;SDS011;5809;53.262;10.408;2024-03-22T11:01:05;66.22;;;39.83;;
11504;SDS011;5809;53.262;10.408;2024-03-22T11:03:31;68.68;;;43.20;;
11504;SDS011;5809;53.262;10.408;2024-03-22T11:05:59;75.28;;;46.22;;
11504;SDS011;5809;53.262;10.408;2024-03-22T11:08:25;55.80;;;36.13;;
11504;SDS011;5809;53.262;10.408;2024-03-22T11:10:54;59.25;;;36.65;;
11504;SDS011;5809;53.262;10.408;2024-03-22T11:13:22;52.15;;;34.90;;
11504;SDS011;5809;53.262;10.408;2024-03-22T11:15:50;59.03;;;36.65;;
11504;SDS011;5809;53.262;10.408;2024-03-22T11:18:16;62.65;;;36.40;;
11504;SDS011;5809;53.262;10.408;2024-03-22T11:20:43;62.53;;;37.58;;
11504;SDS011;5809;53.262;10.408;2024-03-22T11:23:10;52.85;;;34.10;;
11504;SDS011;5809;53.262;10.408;2024-03-22T11:25:36;50.17;;;33.40;;
11504;SDS011;5809;53.262;10.408;2024-03-22T11:28:04;43.67;;;30.48;;
11504;SDS011;5809;53.262;10.408;2024-03-22T11:30:32;40.28;;;28.63;;
11504;SDS011;5809;53.262;10.408;2024-03-22T11:33:02;44.38;;;29.65;;
11504;SDS011;5809;53.262;10.408;2024-03-22T11:35:28;42.08;;;28.25;;
11504;SDS011;5809;53.262;10.408;2024-03-22T11:37:55;39.08;;;28.35;;
11504;SDS011;5809;53.262;10.408;2024-03-22T11:40:21;39.08;;;27.08;;
11504;SDS011;5809;53.262;10.408;2024-03-22T11:42:50;37.03;;;26.60;;
11504;SDS011;5809;53.262;10.408;2024-03-22T11:45:17;42.33;;;28.25;;
11504;SDS011;5809;53.262;10.408;2024-03-22T11:47:45;41.28;;;26.45;;
11504;SDS011;5809;53.262;10.408;2024-03-22T11:50:14;40.80;;;27.02;;
11504;SDS011;5809;53.262;10.408;2024-03-22T11:52:41;38.17;;;27.23;;
11504;SDS011;5809;53.262;10.408;2024-03-22T11:55:08;37.83;;;26.10;;
11504;SDS011;5809;53.262;10.408;2024-03-22T11:57:37;36.13;;;25.27;;
11504;SDS011;5809;53.262;10.408;2024-03-22T12:00:03;32.28;;;24.17;;
11504;SDS011;5809;53.262;10.408;2024-03-22T12:02:34;28.33;;;21.35;;
11504;SDS011;5809;53.262;10.408;2024-03-22T12:05:01;26.95;;;20.17;;
11504;SDS011;5809;53.262;10.408;2024-03-22T12:07:31;27.88;;;21.30;;
11504;SDS011;5809;53.262;10.408;2024-03-22T12:09:58;26.77;;;20.10;;
11504;SDS011;5809;53.262;10.408;2024-03-22T12:12:25;21.13;;;17.25;;
11504;SDS011;5809;53.262;10.408;2024-03-22T12:14:52;22.77;;;17.80;;
11504;SDS011;5809;53.262;10.408;2024-03-22T12:17:19;27.67;;;19.95;;
11504;SDS011;5809;53.262;10.408;2024-03-22T12:19:44;25.83;;;18.05;;
11504;SDS011;5809;53.262;10.408;2024-03-22T12:22:12;24.17;;;18.83;;
11504;SDS011;5809;53.262;10.408;2024-03-22T12:24:39;22.92;;;15.82;;
11504;SDS011;5809;53.262;10.408;2024-03-22T12:27:07;21.42;;;15.75;;
11504;SDS011;5809;53.262;10.408;2024-03-22T12:29:33;21.80;;;16.75;;
11504;SDS011;5809;53.262;10.408;2024-03-22T12:32:00;20.58;;;15.63;;
11504;SDS011;5809;53.262;10.408;2024-03-22T12:34:28;20.48;;;15.43;;
11504;SDS011;5809;53.262;10.408;2024-03-22T12:36:55;20.35;;;15.98;;
11504;SDS011;5809;53.262;10.408;2024-03-22T12:39:21;21.42;;;15.40;;
11504;SDS011;5809;53.262;10.408;2024-03-22T12:41:49;18.83;;;15.25;;
11504;SDS011;5809;53.262;10.408;2024-03-22T12:44:15;22.50;;;15.85;;
11504;SDS011;5809;53.262;10.408;2024-03-22T12:46:42;21.15;;;15.32;;
11504;SDS011;5809;53.262;10.408;2024-03-22T12:49:10;20.58;;;14.68;;
11504;SDS011;5809;53.262;10.408;2024-03-22T12:51:37;16.52;;;13.10;;
11504;SDS011;5809;53.262;10.408;2024-03-22T12:54:03;16.42;;;13.00;;
11504;SDS011;5809;53.262;10.408;2024-03-22T12:56:30;16.77;;;12.57;;
11504;SDS011;5809;53.262;10.408;2024-03-22T12:58:58;13.98;;;11.13;;
11504;SDS011;5809;53.262;10.408;2024-03-22T13:01:24;14.55;;;10.73;;
11504;SDS011;5809;53.262;10.408;2024-03-22T13:03:51;14.18;;;10.75;;
11504;SDS011;5809;53.262;10.408;2024-03-22T13:06:17;12.73;;;10.32;;
11504;SDS011;5809;53.262;10.408;2024-03-22T13:08:43;12.70;;;9.52;;
11504;SDS011;5809;53.262;10.408;2024-03-22T13:11:10;15.48;;;9.25;;
11504;SDS011;5809;53.262;10.408;2024-03-22T13:13:36;10.27;;;9.18;;
11504;SDS011;5809;53.262;10.408;2024-03-22T13:16:05;11.13;;;9.13;;
11504;SDS011;5809;53.262;10.408;2024-03-22T13:18:32;9.20;;;7.80;;
11504;SDS011;5809;53.262;10.408;2024-03-22T13:20:59;11.02;;;9.27;;
11504;SDS011;5809;53.262;10.408;2024-03-22T13:23:25;12.07;;;8.77;;
11504;SDS011;5809;53.262;10.408;2024-03-22T13:25:52;12.90;;;10.38;;
11504;SDS011;5809;53.262;10.408;2024-03-22T13:28:18;14.80;;;11.15;;
11504;SDS011;5809;53.262;10.408;2024-03-22T13:30:47;15.50;;;11.43;;
11504;SDS011;5809;53.262;10.408;2024-03-22T13:33:15;14.23;;;11.60;;
11504;SDS011;5809;53.262;10.408;2024-03-22T13:35:44;13.25;;;10.98;;
11504;SDS011;5809;53.262;10.408;2024-03-22T13:38:10;15.52;;;10.90;;
11504;SDS011;5809;53.262;10.408;2024-03-22T13:40:38;12.63;;;9.60;;
11504;SDS011;5809;53.262;10.408;2024-03-22T13:43:05;12.23;;;9.70;;
11504;SDS011;5809;53.262;10.408;2024-03-22T13:45:32;11.65;;;9.65;;
11504;SDS011;5809;53.262;10.408;2024-03-22T13:47:58;11.23;;;9.77;;
11504;SDS011;5809;53.262;10.408;2024-03-22T13:50:27;11.40;;;9.48;;
11504;SDS011;5809;53.262;10.408;2024-03-22T13:52:52;11.75;;;9.70;;
11504;SDS011;5809;53.262;10.408;2024-03-22T13:55:19;11.15;;;9.65;;
11504;SDS011;5809;53.262;10.408;2024-03-22T13:57:45;11.77;;;10.10;;
11504;SDS011;5809;53.262;10.408;2024-03-22T14:00:12;12.05;;;10.20;;
11504;SDS011;5809;53.262;10.408;2024-03-22T14:02:39;11.88;;;9.50;;
11504;SDS011;5809;53.262;10.408;2024-03-22T14:05:06;12.40;;;9.65;;
11504;SDS011;5809;53.262;10.408;2024-03-22T14:07:34;12.55;;;8.98;;
11504;SDS011;5809;53.262;10.408;2024-03-22T14:10:05;13.23;;;8.90;;
11504;SDS011;5809;53.262;10.408;2024-03-22T14:12:31;9.52;;;8.27;;
11504;SDS011;5809;53.262;10.408;2024-03-22T14:14:58;9.90;;;8.52;;
11504;SDS011;5809;53.262;10.408;2024-03-22T14:17:24;10.18;;;8.48;;
11504;SDS011;5809;53.262;10.408;2024-03-22T14:19:51;10.00;;;8.60;;